sensor_id;sensor_type;location;lat;lon;timestamp;P1;durP1;ratioP1;P2;durP2;ratioP2
42134;SDS011;28312;43.460;11.810;2024-01-30T00:02:18;3.35;;;2.28;;
42134;SDS011;28312;43.460;11.810;2024-01-30T00:06:22;3.92;;;2.38;;
42134;SDS011;28312;43.460;11.810;2024-01-30T00:10:26;4.13;;;2.42;;
42134;SDS011;28312;43.460;11.810;2024-01-30T00:14:30;6.40;;;3.88;;
42134;SDS011;28312;43.460;11.810;2024-01-30T00:18:33;3.55;;;2.38;;
42134;SDS011;28312;43.460;11.810;2024-01-30T00:22:37;6.43;;;3.25;;
42134;SDS011;28312;43.460;11.810;2024-01-30T00:26:41;3.50;;;2.75;;
42134;SDS011;28312;43.460;11.810;2024-01-30T00:30:45;4.65;;;3.53;;
42134;SDS011;28312;43.460;11.810;2024-01-30T00:34:49;5.45;;;3.17;;
42134;SDS011;28312;43.460;11.810;2024-01-30T00:38:52;5.10;;;2.72;;
42134;SDS011;28312;43.460;11.810;2024-01-30T00:42:56;3.45;;;2.15;;
42134;SDS011;28312;43.460;11.810;2024-01-30T00:47:00;2.65;;;1.92;;
42134;SDS011;28312;43.460;11.810;2024-01-30T00:51:03;4.07;;;2.65;;
42134;SDS011;28312;43.460;11.810;2024-01-30T00:55:07;3.35;;;2.10;;
42134;SDS011;28312;43.460;11.810;2024-01-30T00:59:11;5.38;;;3.03;;
42134;SDS011;28312;43.460;11.810;2024-01-30T01:03:15;2.50;;;1.73;;
42134;SDS011;28312;43.460;11.810;2024-01-30T01:07:19;3.22;;;2.05;;
42134;SDS011;28312;43.460;11.810;2024-01-30T01:11:23;3.15;;;1.88;;
42134;SDS011;28312;43.460;11.810;2024-01-30T01:15:26;2.67;;;1.77;;
42134;SDS011;28312;43.460;11.810;2024-01-30T01:19:32;3.53;;;2.10;;
42134;SDS011;28312;43.460;11.810;2024-01-30T01:23:35;4.40;;;2.65;;
42134;SDS011;28312;43.460;11.810;2024-01-30T01:27:39;4.20;;;2.38;;
42134;SDS011;28312;43.460;11.810;2024-01-30T01:31:43;4.25;;;3.00;;
42134;SDS011;28312;43.460;11.810;2024-01-30T01:35:48;2.67;;;1.95;;
42134;SDS011;28312;43.460;11.810;2024-01-30T01:39:53;2.70;;;1.98;;
42134;SDS011;28312;43.460;11.810;2024-01-30T01:43:56;4.72;;;2.75;;
42134;SDS011;28312;43.460;11.810;2024-01-30T01:48:00;3.15;;;1.77;;
42134;SDS011;28312;43.460;11.810;2024-01-30T01:52:04;4.32;;;3.28;;
42134;SDS011;28312;43.460;11.810;2024-01-30T01:56:09;3.92;;;2.42;;
42134;SDS011;28312;43.460;11.810;2024-01-30T02:00:13;2.95;;;2.35;;
42134;SDS011;28312;43.460;11.810;2024-01-30T02:04:18;5.30;;;3.17;;
42134;SDS011;28312;43.460;11.810;2024-01-30T02:08:22;5.22;;;3.15;;
42134;SDS011;28312;43.460;11.810;2024-01-30T02:12:26;3.92;;;2.33;;
42134;SDS011;28312;43.460;11.810;2024-01-30T02:16:30;5.95;;;3.28;;
42134;SDS011;28312;43.460;11.810;2024-01-30T02:20:34;3.30;;;2.20;;
42134;SDS011;28312;43.460;11.810;2024-01-30T02:24:40;2.85;;;1.60;;
42134;SDS011;28312;43.460;11.810;2024-01-30T02:28:43;3.15;;;2.28;;
42134;SDS011;28312;43.460;11.810;2024-01-30T02:32:47;4.22;;;2.88;;
42134;SDS011;28312;43.460;11.810;2024-01-30T02:36:50;4.18;;;2.90;;
42134;SDS011;28312;43.460;11.810;2024-01-30T02:40:54;4.05;;;2.90;;
42134;SDS011;28312;43.460;11.810;2024-01-30T02:44:59;6.43;;;3.75;;
42134;SDS011;28312;43.460;11.810;2024-01-30T02:49:03;5.75;;;3.72;;
42134;SDS011;28312;43.460;11.810;2024-01-30T02:53:07;4.60;;;2.53;;
42134;SDS011;28312;43.460;11.810;2024-01-30T02:57:10;5.10;;;3.60;;
42134;SDS011;28312;43.460;11.810;2024-01-30T03:01:14;4.28;;;2.05;;
42134;SDS011;28312;43.460;11.810;2024-01-30T03:05:18;6.32;;;4.53;;
42134;SDS011;28312;43.460;11.810;2024-01-30T03:09:21;2.95;;;1.70;;
42134;SDS011;28312;43.460;11.810;2024-01-30T03:13:25;3.92;;;2.08;;
42134;SDS011;28312;43.460;11.810;2024-01-30T03:17:29;3.50;;;2.45;;
42134;SDS011;28312;43.460;11.810;2024-01-30T03:21:33;2.85;;;1.73;;
42134;SDS011;28312;43.460;11.810;2024-01-30T03:25:37;2.78;;;1.67;;
42134;SDS011;28312;43.460;11.810;2024-01-30T03:29:40;3.13;;;2.13;;
42134;SDS011;28312;43.460;11.810;2024-01-30T03:33:44;2.55;;;1.65;;
42134;SDS011;28312;43.460;11.810;2024-01-30T03:37:48;3.00;;;1.90;;
42134;SDS011;28312;43.460;11.810;2024-01-30T03:41:51;2.58;;;1.85;;
42134;SDS011;28312;43.460;11.810;2024-01-30T03:45:55;7.60;;;5.40;;
42134;SDS011;28312;43.460;11.810;2024-01-30T03:49:59;3.75;;;2.30;;
42134;SDS011;28312;43.460;11.810;2024-01-30T03:54:02;3.88;;;2.42;;
42134;SDS011;28312;43.460;11.810;2024-01-30T03:58:06;3.35;;;2.40;;
42134;SDS011;28312;43.460;11.810;2024-01-30T04:02:10;3.20;;;2.05;;
42134;SDS011;28312;43.460;11.810;2024-01-30T04:06:15;3.03;;;1.80;;
42134;SDS011;28312;43.460;11.810;2024-01-30T04:10:18;4.88;;;2.03;;
42134;SDS011;28312;43.460;11.810;2024-01-30T04:14:22;3.05;;;2.15;;
42134;SDS011;28312;43.460;11.810;2024-01-30T04:18:25;2.72;;;2.15;;
42134;SDS011;28312;43.460;11.810;2024-01-30T04:22:29;2.70;;;2.20;;
42134;SDS011;28312;43.460;11.810;2024-01-30T04:26:33;3.08;;;2.00;;
42134;SDS011;28312;43.460;11.810;2024-01-30T04:30:37;2.88;;;2.13;;
42134;SDS011;28312;43.460;11.810;2024-01-30T04:34:41;2.15;;;1.50;;
42134;SDS011;28312;43.460;11.810;2024-01-30T04:38:45;3.70;;;2.40;;
42134;SDS011;28312;43.460;11.810;2024-01-30T04:42:49;3.35;;;2.33;;
42134;SDS011;28312;43.460;11.810;2024-01-30T04:46:53;4.55;;;2.92;;
42134;SDS011;28312;43.460;11.810;2024-01-30T04:50:56;3.50;;;2.13;;
42134;SDS011;28312;43.460;11.810;2024-01-30T04:55:00;9.32;;;6.30;;
42134;SDS011;28312;43.460;11.810;2024-01-30T04:59:05;3.25;;;2.28;;
42134;SDS011;28312;43.460;11.810;2024-01-30T05:03:11;2.97;;;1.73;;
42134;SDS011;28312;43.460;11.810;2024-01-30T05:07:15;3.38;;;2.42;;
42134;SDS011;28312;43.460;11.810;2024-01-30T05:11:18;3.45;;;1.85;;
42134;SDS011;28312;43.460;11.810;2024-01-30T05:15:22;2.50;;;1.75;;
42134;SDS011;28312;43.460;11.810;2024-01-30T05:19:25;2.45;;;2.15;;
42134;SDS011;28312;43.460;11.810;2024-01-30T05:23:29;4.35;;;2.75;;
42134;SDS011;28312;43.460;11.810;2024-01-30T05:27:32;4.32;;;2.22;;
42134;SDS011;28312;43.460;11.810;2024-01-30T05:31:36;3.15;;;2.42;;
42134;SDS011;28312;43.460;11.810;2024-01-30T05:35:41;5.07;;;2.85;;
42134;SDS011;28312;43.460;11.810;2024-01-30T05:39:44;3.17;;;1.80;;
42134;SDS011;28312;43.460;11.810;2024-01-30T05:43:48;3.17;;;2.00;;
42134;SDS011;28312;43.460;11.810;2024-01-30T05:47:54;3.30;;;2.45;;
42134;SDS011;28312;43.460;11.810;2024-01-30T05:51:58;4.38;;;2.25;;
42134;SDS011;28312;43.460;11.810;2024-01-30T05:56:02;4.32;;;2.25;;
42134;SDS011;28312;43.460;11.810;2024-01-30T06:00:05;5.95;;;3.58;;
42134;SDS011;28312;43.460;11.810;2024-01-30T06:04:10;3.28;;;1.95;;
42134;SDS011;28312;43.460;11.810;2024-01-30T06:08:13;3.08;;;2.53;;
42134;SDS011;28312;43.460;11.810;2024-01-30T06:12:17;3.67;;;2.55;;
42134;SDS011;28312;43.460;11.810;2024-01-30T06:16:21;2.35;;;1.98;;
42134;SDS011;28312;43.460;11.810;2024-01-30T06:20:25;3.10;;;2.10;;
42134;SDS011;28312;43.460;11.810;2024-01-30T06:24:29;3.47;;;2.55;;
42134;SDS011;28312;43.460;11.810;2024-01-30T06:28:32;3.88;;;2.65;;
42134;SDS011;28312;43.460;11.810;2024-01-30T06:32:36;4.18;;;2.85;;
42134;SDS011;28312;43.460;11.810;2024-01-30T06:36:39;4.00;;;3.08;;
42134;SDS011;28312;43.460;11.810;2024-01-30T06:40:43;4.85;;;3.13;;
42134;SDS011;28312;43.460;11.810;2024-01-30T06:44:47;4.97;;;2.47;;
42134;SDS011;28312;43.460;11.810;2024-01-30T06:48:51;3.95;;;2.88;;
42134;SDS011;28312;43.460;11.810;2024-01-30T06:52:55;3.90;;;2.60;;
42134;SDS011;28312;43.460;11.810;2024-01-30T06:56:58;5.60;;;2.42;;
42134;SDS011;28312;43.460;11.810;2024-01-30T07:05:48;2.95;;;1.90;;
42134;SDS011;28312;43.460;11.810;2024-01-30T07:09:52;3.75;;;2.00;;
42134;SDS011;28312;43.460;11.810;2024-01-30T07:13:59;5.85;;;2.65;;
42134;SDS011;28312;43.460;11.810;2024-01-30T07:22:10;4.80;;;3.78;;
42134;SDS011;28312;43.460;11.810;2024-01-30T07:26:14;5.82;;;3.40;;
42134;SDS011;28312;43.460;11.810;2024-01-30T07:30:17;3.53;;;2.60;;
42134;SDS011;28312;43.460;11.810;2024-01-30T07:34:21;4.07;;;3.10;;
42134;SDS011;28312;43.460;11.810;2024-01-30T07:38:25;4.80;;;4.25;;
42134;SDS011;28312;43.460;11.810;2024-01-30T07:42:29;6.18;;;4.07;;
42134;SDS011;28312;43.460;11.810;2024-01-30T07:46:32;11.68;;;7.35;;
42134;SDS011;28312;43.460;11.810;2024-01-30T07:50:36;7.93;;;5.93;;
42134;SDS011;28312;43.460;11.810;2024-01-30T07:54:49;7.82;;;4.75;;
42134;SDS011;28312;43.460;11.810;2024-01-30T07:58:54;14.10;;;8.40;;
42134;SDS011;28312;43.460;11.810;2024-01-30T08:02:58;11.43;;;7.82;;
42134;SDS011;28312;43.460;11.810;2024-01-30T08:07:03;17.60;;;11.07;;
42134;SDS011;28312;43.460;11.810;2024-01-30T08:11:08;12.10;;;9.40;;
42134;SDS011;28312;43.460;11.810;2024-01-30T08:15:12;11.93;;;9.80;;
42134;SDS011;28312;43.460;11.810;2024-01-30T08:19:16;15.27;;;12.30;;
42134;SDS011;28312;43.460;11.810;2024-01-30T08:23:20;16.45;;;11.00;;
42134;SDS011;28312;43.460;11.810;2024-01-30T08:27:23;16.67;;;12.30;;
42134;SDS011;28312;43.460;11.810;2024-01-30T08:31:27;16.42;;;11.93;;
42134;SDS011;28312;43.460;11.810;2024-01-30T08:35:31;16.55;;;12.55;;
42134;SDS011;28312;43.460;11.810;2024-01-30T08:39:37;15.90;;;12.85;;
42134;SDS011;28312;43.460;11.810;2024-01-30T08:43:41;12.68;;;8.93;;
42134;SDS011;28312;43.460;11.810;2024-01-30T08:47:46;24.00;;;15.15;;
42134;SDS011;28312;43.460;11.810;2024-01-30T08:51:49;13.35;;;8.25;;
42134;SDS011;28312;43.460;11.810;2024-01-30T08:55:53;13.25;;;10.00;;
42134;SDS011;28312;43.460;11.810;2024-01-30T08:59:57;10.95;;;8.88;;
42134;SDS011;28312;43.460;11.810;2024-01-30T09:04:00;14.10;;;10.50;;
42134;SDS011;28312;43.460;11.810;2024-01-30T09:08:04;8.68;;;6.88;;
42134;SDS011;28312;43.460;11.810;2024-01-30T09:12:08;11.80;;;8.93;;
42134;SDS011;28312;43.460;11.810;2024-01-30T09:16:14;8.80;;;5.70;;
42134;SDS011;28312;43.460;11.810;2024-01-30T09:20:19;7.85;;;6.30;;
42134;SDS011;28312;43.460;11.810;2024-01-30T09:24:23;5.28;;;4.13;;
42134;SDS011;28312;43.460;11.810;2024-01-30T09:28:26;10.13;;;6.22;;
42134;SDS011;28312;43.460;11.810;2024-01-30T09:32:30;8.93;;;6.93;;
42134;SDS011;28312;43.460;11.810;2024-01-30T09:36:34;10.63;;;5.88;;
42134;SDS011;28312;43.460;11.810;2024-01-30T09:40:37;7.47;;;6.00;;
42134;SDS011;28312;43.460;11.810;2024-01-30T09:44:41;7.50;;;6.13;;
42134;SDS011;28312;43.460;11.810;2024-01-30T09:48:47;8.60;;;6.13;;
42134;SDS011;28312;43.460;11.810;2024-01-30T09:52:50;10.90;;;6.57;;
42134;SDS011;28312;43.460;11.810;2024-01-30T09:56:56;7.55;;;5.93;;
42134;SDS011;28312;43.460;11.810;2024-01-30T10:01:00;6.88;;;5.38;;
42134;SDS011;28312;43.460;11.810;2024-01-30T10:05:04;7.13;;;5.10;;
42134;SDS011;28312;43.460;11.810;2024-01-30T10:09:09;6.03;;;5.25;;
42134;SDS011;28312;43.460;11.810;2024-01-30T10:13:13;7.18;;;5.30;;
42134;SDS011;28312;43.460;11.810;2024-01-30T10:17:17;7.72;;;5.50;;
42134;SDS011;28312;43.460;11.810;2024-01-30T10:21:34;7.65;;;5.60;;
42134;SDS011;28312;43.460;11.810;2024-01-30T10:25:38;8.65;;;6.60;;
42134;SDS011;28312;43.460;11.810;2024-01-30T10:29:41;10.98;;;6.90;;
42134;SDS011;28312;43.460;11.810;2024-01-30T10:33:46;7.28;;;5.45;;
42134;SDS011;28312;43.460;11.810;2024-01-30T10:37:50;8.15;;;5.97;;
42134;SDS011;28312;43.460;11.810;2024-01-30T10:41:54;5.80;;;4.97;;
42134;SDS011;28312;43.460;11.810;2024-01-30T10:46:06;5.55;;;4.40;;
42134;SDS011;28312;43.460;11.810;2024-01-30T10:50:15;5.88;;;4.35;;
42134;SDS011;28312;43.460;11.810;2024-01-30T10:54:19;6.45;;;4.97;;
42134;SDS011;28312;43.460;11.810;2024-01-30T10:58:23;5.90;;;4.40;;
42134;SDS011;28312;43.460;11.810;2024-01-30T11:02:28;8.27;;;5.88;;
42134;SDS011;28312;43.460;11.810;2024-01-30T11:06:32;5.88;;;4.70;;
42134;SDS011;28312;43.460;11.810;2024-01-30T11:10:46;6.32;;;5.03;;
42134;SDS011;28312;43.460;11.810;2024-01-30T11:15:02;5.68;;;5.00;;
42134;SDS011;28312;43.460;11.810;2024-01-30T11:19:11;6.47;;;4.90;;
42134;SDS011;28312;43.460;11.810;2024-01-30T11:23:15;6.20;;;4.05;;
42134;SDS011;28312;43.460;11.810;2024-01-30T11:27:20;5.95;;;4.35;;
42134;SDS011;28312;43.460;11.810;2024-01-30T11:31:24;5.75;;;4.22;;
42134;SDS011;28312;43.460;11.810;2024-01-30T11:35:27;10.13;;;7.85;;
42134;SDS011;28312;43.460;11.810;2024-01-30T11:39:36;6.13;;;4.65;;
42134;SDS011;28312;43.460;11.810;2024-01-30T11:43:40;4.80;;;3.47;;
42134;SDS011;28312;43.460;11.810;2024-01-30T11:47:43;4.22;;;3.30;;
42134;SDS011;28312;43.460;11.810;2024-01-30T11:51:48;5.75;;;3.83;;
42134;SDS011;28312;43.460;11.810;2024-01-30T11:55:52;6.00;;;3.42;;
42134;SDS011;28312;43.460;11.810;2024-01-30T11:59:56;6.45;;;3.97;;
42134;SDS011;28312;43.460;11.810;2024-01-30T12:04:00;5.20;;;4.00;;
42134;SDS011;28312;43.460;11.810;2024-01-30T12:08:04;4.38;;;3.20;;
42134;SDS011;28312;43.460;11.810;2024-01-30T12:12:08;5.10;;;3.53;;
42134;SDS011;28312;43.460;11.810;2024-01-30T12:20:18;4.78;;;3.33;;
42134;SDS011;28312;43.460;11.810;2024-01-30T12:24:25;5.93;;;4.10;;
42134;SDS011;28312;43.460;11.810;2024-01-30T12:28:30;6.43;;;3.77;;
42134;SDS011;28312;43.460;11.810;2024-01-30T12:32:35;4.78;;;3.40;;
42134;SDS011;28312;43.460;11.810;2024-01-30T12:36:39;6.55;;;4.07;;
42134;SDS011;28312;43.460;11.810;2024-01-30T12:40:42;3.40;;;2.30;;
42134;SDS011;28312;43.460;11.810;2024-01-30T12:44:47;3.53;;;2.33;;
42134;SDS011;28312;43.460;11.810;2024-01-30T12:48:51;4.55;;;2.92;;
42134;SDS011;28312;43.460;11.810;2024-01-30T12:52:56;6.60;;;2.60;;
42134;SDS011;28312;43.460;11.810;2024-01-30T12:57:01;7.70;;;2.60;;
42134;SDS011;28312;43.460;11.810;2024-01-30T13:01:04;3.72;;;2.50;;
42134;SDS011;28312;43.460;11.810;2024-01-30T13:05:08;3.42;;;2.35;;
42134;SDS011;28312;43.460;11.810;2024-01-30T13:09:12;3.58;;;2.60;;
42134;SDS011;28312;43.460;11.810;2024-01-30T13:13:16;3.63;;;2.38;;
42134;SDS011;28312;43.460;11.810;2024-01-30T13:17:22;3.80;;;2.33;;
42134;SDS011;28312;43.460;11.810;2024-01-30T13:21:26;3.65;;;2.00;;
42134;SDS011;28312;43.460;11.810;2024-01-30T13:25:29;6.95;;;3.30;;
42134;SDS011;28312;43.460;11.810;2024-01-30T13:29:33;5.55;;;3.20;;
42134;SDS011;28312;43.460;11.810;2024-01-30T13:33:37;4.45;;;3.15;;
42134;SDS011;28312;43.460;11.810;2024-01-30T13:37:41;5.97;;;2.65;;
42134;SDS011;28312;43.460;11.810;2024-01-30T13:41:45;6.30;;;2.88;;
42134;SDS011;28312;43.460;11.810;2024-01-30T13:45:50;3.95;;;2.97;;
42134;SDS011;28312;43.460;11.810;2024-01-30T13:49:54;6.13;;;3.40;;
42134;SDS011;28312;43.460;11.810;2024-01-30T13:54:01;4.60;;;3.13;;
42134;SDS011;28312;43.460;11.810;2024-01-30T13:58:05;5.00;;;3.50;;
42134;SDS011;28312;43.460;11.810;2024-01-30T14:02:09;4.25;;;2.90;;
42134;SDS011;28312;43.460;11.810;2024-01-30T14:06:13;6.07;;;3.33;;
42134;SDS011;28312;43.460;11.810;2024-01-30T14:10:18;4.22;;;3.03;;
42134;SDS011;28312;43.460;11.810;2024-01-30T14:14:21;6.43;;;3.83;;
42134;SDS011;28312;43.460;11.810;2024-01-30T14:18:25;4.70;;;3.38;;
42134;SDS011;28312;43.460;11.810;2024-01-30T14:22:28;4.53;;;2.90;;
42134;SDS011;28312;43.460;11.810;2024-01-30T14:26:32;4.22;;;2.75;;
42134;SDS011;28312;43.460;11.810;2024-01-30T14:30:36;3.38;;;2.42;;
42134;SDS011;28312;43.460;11.810;2024-01-30T14:34:39;6.40;;;4.10;;
42134;SDS011;28312;43.460;11.810;2024-01-30T14:38:44;5.25;;;3.45;;
42134;SDS011;28312;43.460;11.810;2024-01-30T14:42:48;5.85;;;2.75;;
42134;SDS011;28312;43.460;11.810;2024-01-30T14:46:51;4.78;;;2.75;;
42134;SDS011;28312;43.460;11.810;2024-01-30T14:50:55;4.85;;;2.80;;
42134;SDS011;28312;43.460;11.810;2024-01-30T14:54:59;5.15;;;3.40;;
42134;SDS011;28312;43.460;11.810;2024-01-30T14:59:02;3.72;;;2.38;;
42134;SDS011;28312;43.460;11.810;2024-01-30T15:03:06;3.42;;;2.30;;
42134;SDS011;28312;43.460;11.810;2024-01-30T15:07:09;3.63;;;2.45;;
42134;SDS011;28312;43.460;11.810;2024-01-30T15:11:16;4.78;;;2.33;;
42134;SDS011;28312;43.460;11.810;2024-01-30T15:15:20;4.15;;;2.63;;
42134;SDS011;28312;43.460;11.810;2024-01-30T15:19:24;5.32;;;2.17;;
42134;SDS011;28312;43.460;11.810;2024-01-30T15:23:28;4.78;;;2.03;;
42134;SDS011;28312;43.460;11.810;2024-01-30T15:27:32;3.38;;;2.00;;
42134;SDS011;28312;43.460;11.810;2024-01-30T15:31:35;4.70;;;2.47;;
42134;SDS011;28312;43.460;11.810;2024-01-30T15:35:39;4.68;;;3.25;;
42134;SDS011;28312;43.460;11.810;2024-01-30T15:39:43;5.25;;;3.50;;
42134;SDS011;28312;43.460;11.810;2024-01-30T15:43:46;4.57;;;2.85;;
42134;SDS011;28312;43.460;11.810;2024-01-30T15:47:50;4.72;;;2.92;;
42134;SDS011;28312;43.460;11.810;2024-01-30T15:51:53;3.65;;;2.90;;
42134;SDS011;28312;43.460;11.810;2024-01-30T15:55:57;9.38;;;2.85;;
42134;SDS011;28312;43.460;11.810;2024-01-30T16:00:01;7.28;;;4.53;;
42134;SDS011;28312;43.460;11.810;2024-01-30T16:04:13;7.38;;;3.60;;
42134;SDS011;28312;43.460;11.810;2024-01-30T16:08:18;6.28;;;3.65;;
42134;SDS011;28312;43.460;11.810;2024-01-30T16:12:22;6.43;;;4.57;;
42134;SDS011;28312;43.460;11.810;2024-01-30T16:16:27;10.50;;;5.15;;
42134;SDS011;28312;43.460;11.810;2024-01-30T16:20:31;6.05;;;3.92;;
42134;SDS011;28312;43.460;11.810;2024-01-30T16:24:36;5.63;;;3.80;;
42134;SDS011;28312;43.460;11.810;2024-01-30T16:28:40;4.60;;;3.53;;
42134;SDS011;28312;43.460;11.810;2024-01-30T16:32:44;7.72;;;4.57;;
42134;SDS011;28312;43.460;11.810;2024-01-30T16:36:48;8.20;;;5.75;;
42134;SDS011;28312;43.460;11.810;2024-01-30T16:40:51;11.38;;;7.07;;
42134;SDS011;28312;43.460;11.810;2024-01-30T16:44:55;5.35;;;3.65;;
42134;SDS011;28312;43.460;11.810;2024-01-30T16:48:58;8.00;;;4.57;;
42134;SDS011;28312;43.460;11.810;2024-01-30T16:53:02;12.30;;;6.32;;
42134;SDS011;28312;43.460;11.810;2024-01-30T16:57:06;12.63;;;8.27;;
42134;SDS011;28312;43.460;11.810;2024-01-30T17:01:09;10.80;;;6.65;;
42134;SDS011;28312;43.460;11.810;2024-01-30T17:05:13;13.70;;;7.15;;
42134;SDS011;28312;43.460;11.810;2024-01-30T17:09:28;8.88;;;5.68;;
42134;SDS011;28312;43.460;11.810;2024-01-30T17:13:32;11.70;;;6.93;;
42134;SDS011;28312;43.460;11.810;2024-01-30T17:17:35;8.70;;;5.00;;
42134;SDS011;28312;43.460;11.810;2024-01-30T17:21:39;9.88;;;4.85;;
42134;SDS011;28312;43.460;11.810;2024-01-30T17:25:42;5.30;;;3.40;;
42134;SDS011;28312;43.460;11.810;2024-01-30T17:29:46;8.57;;;3.88;;
42134;SDS011;28312;43.460;11.810;2024-01-30T17:33:50;5.55;;;2.50;;
42134;SDS011;28312;43.460;11.810;2024-01-30T17:37:54;3.92;;;2.20;;
42134;SDS011;28312;43.460;11.810;2024-01-30T17:41:58;5.05;;;2.70;;
42134;SDS011;28312;43.460;11.810;2024-01-30T17:46:01;6.55;;;3.35;;
42134;SDS011;28312;43.460;11.810;2024-01-30T17:50:07;4.85;;;3.03;;
42134;SDS011;28312;43.460;11.810;2024-01-30T17:54:10;4.45;;;2.28;;
42134;SDS011;28312;43.460;11.810;2024-01-30T17:58:14;5.60;;;3.30;;
42134;SDS011;28312;43.460;11.810;2024-01-30T18:02:18;6.97;;;3.58;;
42134;SDS011;28312;43.460;11.810;2024-01-30T18:06:22;5.70;;;2.83;;
42134;SDS011;28312;43.460;11.810;2024-01-30T18:10:25;6.38;;;2.72;;
42134;SDS011;28312;43.460;11.810;2024-01-30T18:14:29;4.10;;;2.28;;
42134;SDS011;28312;43.460;11.810;2024-01-30T18:18:35;9.90;;;3.72;;
42134;SDS011;28312;43.460;11.810;2024-01-30T18:22:40;4.55;;;3.00;;
42134;SDS011;28312;43.460;11.810;2024-01-30T18:26:44;5.68;;;3.08;;
42134;SDS011;28312;43.460;11.810;2024-01-30T18:30:48;5.50;;;2.88;;
42134;SDS011;28312;43.460;11.810;2024-01-30T18:34:52;3.92;;;2.25;;
42134;SDS011;28312;43.460;11.810;2024-01-30T18:38:55;4.80;;;2.80;;
42134;SDS011;28312;43.460;11.810;2024-01-30T18:42:59;8.73;;;4.10;;
42134;SDS011;28312;43.460;11.810;2024-01-30T18:47:07;4.22;;;2.63;;
42134;SDS011;28312;43.460;11.810;2024-01-30T18:51:13;5.43;;;2.60;;
42134;SDS011;28312;43.460;11.810;2024-01-30T18:55:20;3.78;;;2.13;;
42134;SDS011;28312;43.460;11.810;2024-01-30T18:59:24;3.50;;;2.17;;
42134;SDS011;28312;43.460;11.810;2024-01-30T19:03:28;4.10;;;2.60;;
42134;SDS011;28312;43.460;11.810;2024-01-30T19:07:32;5.20;;;2.50;;
42134;SDS011;28312;43.460;11.810;2024-01-30T19:11:37;4.20;;;3.00;;
42134;SDS011;28312;43.460;11.810;2024-01-30T19:15:40;4.78;;;2.30;;
42134;SDS011;28312;43.460;11.810;2024-01-30T19:19:46;4.40;;;1.90;;
42134;SDS011;28312;43.460;11.810;2024-01-30T19:23:50;4.28;;;2.75;;
42134;SDS011;28312;43.460;11.810;2024-01-30T19:27:56;4.55;;;2.25;;
42134;SDS011;28312;43.460;11.810;2024-01-30T19:32:02;4.80;;;2.22;;
42134;SDS011;28312;43.460;11.810;2024-01-30T19:36:06;4.85;;;2.55;;
42134;SDS011;28312;43.460;11.810;2024-01-30T19:40:10;4.95;;;2.25;;
42134;SDS011;28312;43.460;11.810;2024-01-30T19:44:14;4.75;;;2.55;;
42134;SDS011;28312;43.460;11.810;2024-01-30T19:48:17;3.00;;;1.80;;
42134;SDS011;28312;43.460;11.810;2024-01-30T19:52:21;3.97;;;3.05;;
42134;SDS011;28312;43.460;11.810;2024-01-30T19:56:25;4.00;;;2.60;;
42134;SDS011;28312;43.460;11.810;2024-01-30T20:00:28;3.50;;;1.90;;
42134;SDS011;28312;43.460;11.810;2024-01-30T20:04:32;3.75;;;2.15;;
42134;SDS011;28312;43.460;11.810;2024-01-30T20:08:37;5.53;;;2.85;;
42134;SDS011;28312;43.460;11.810;2024-01-30T20:12:41;4.43;;;2.38;;
42134;SDS011;28312;43.460;11.810;2024-01-30T20:16:44;3.60;;;2.30;;
42134;SDS011;28312;43.460;11.810;2024-01-30T20:20:48;4.70;;;3.20;;
42134;SDS011;28312;43.460;11.810;2024-01-30T20:24:51;5.75;;;2.67;;
42134;SDS011;28312;43.460;11.810;2024-01-30T20:29:07;6.00;;;2.90;;
42134;SDS011;28312;43.460;11.810;2024-01-30T20:33:11;3.25;;;2.15;;
42134;SDS011;28312;43.460;11.810;2024-01-30T20:37:17;5.22;;;2.97;;
42134;SDS011;28312;43.460;11.810;2024-01-30T20:41:21;6.68;;;3.03;;
42134;SDS011;28312;43.460;11.810;2024-01-30T20:45:24;4.32;;;2.40;;
42134;SDS011;28312;43.460;11.810;2024-01-30T20:49:28;5.15;;;2.80;;
42134;SDS011;28312;43.460;11.810;2024-01-30T20:53:32;5.03;;;3.03;;
42134;SDS011;28312;43.460;11.810;2024-01-30T20:57:37;5.78;;;3.78;;
42134;SDS011;28312;43.460;11.810;2024-01-30T21:01:40;4.63;;;2.10;;
42134;SDS011;28312;43.460;11.810;2024-01-30T21:05:44;4.63;;;2.83;;
42134;SDS011;28312;43.460;11.810;2024-01-30T21:09:48;4.38;;;2.83;;
42134;SDS011;28312;43.460;11.810;2024-01-30T21:13:53;7.55;;;4.72;;
42134;SDS011;28312;43.460;11.810;2024-01-30T21:17:56;5.03;;;2.40;;
42134;SDS011;28312;43.460;11.810;2024-01-30T21:22:00;3.10;;;2.10;;
42134;SDS011;28312;43.460;11.810;2024-01-30T21:26:03;6.05;;;3.13;;
42134;SDS011;28312;43.460;11.810;2024-01-30T21:30:08;6.82;;;3.22;;
42134;SDS011;28312;43.460;11.810;2024-01-30T21:34:12;5.95;;;2.80;;
42134;SDS011;28312;43.460;11.810;2024-01-30T21:38:16;5.80;;;3.42;;
42134;SDS011;28312;43.460;11.810;2024-01-30T21:42:23;4.82;;;3.25;;
42134;SDS011;28312;43.460;11.810;2024-01-30T21:46:26;5.30;;;3.15;;
42134;SDS011;28312;43.460;11.810;2024-01-30T21:50:30;4.55;;;3.17;;
42134;SDS011;28312;43.460;11.810;2024-01-30T21:54:34;4.88;;;3.15;;
42134;SDS011;28312;43.460;11.810;2024-01-30T21:58:37;4.15;;;2.65;;
42134;SDS011;28312;43.460;11.810;2024-01-30T22:02:42;4.95;;;2.58;;
42134;SDS011;28312;43.460;11.810;2024-01-30T22:06:46;4.05;;;2.63;;
42134;SDS011;28312;43.460;11.810;2024-01-30T22:10:49;3.75;;;2.50;;
42134;SDS011;28312;43.460;11.810;2024-01-30T22:14:53;7.00;;;3.05;;
42134;SDS011;28312;43.460;11.810;2024-01-30T22:18:56;6.47;;;1.90;;
42134;SDS011;28312;43.460;11.810;2024-01-30T22:23:02;3.80;;;2.55;;
42134;SDS011;28312;43.460;11.810;2024-01-30T22:27:06;3.88;;;2.70;;
42134;SDS011;28312;43.460;11.810;2024-01-30T22:31:09;6.93;;;2.55;;
42134;SDS011;28312;43.460;11.810;2024-01-30T22:35:15;5.63;;;2.75;;
42134;SDS011;28312;43.460;11.810;2024-01-30T22:39:18;4.22;;;2.78;;
42134;SDS011;28312;43.460;11.810;2024-01-30T22:43:22;5.07;;;2.63;;
42134;SDS011;28312;43.460;11.810;2024-01-30T22:47:27;9.98;;;5.07;;
42134;SDS011;28312;43.460;11.810;2024-01-30T22:51:31;4.22;;;3.03;;
42134;SDS011;28312;43.460;11.810;2024-01-30T22:55:35;6.07;;;4.40;;
42134;SDS011;28312;43.460;11.810;2024-01-30T22:59:38;5.88;;;3.53;;
42134;SDS011;28312;43.460;11.810;2024-01-30T23:03:42;6.43;;;2.80;;
42134;SDS011;28312;43.460;11.810;2024-01-30T23:07:47;5.75;;;3.13;;
42134;SDS011;28312;43.460;11.810;2024-01-30T23:11:51;4.28;;;2.60;;
42134;SDS011;28312;43.460;11.810;2024-01-30T23:15:55;4.03;;;2.97;;
42134;SDS011;28312;43.460;11.810;2024-01-30T23:19:59;6.53;;;4.07;;
42134;SDS011;28312;43.460;11.810;2024-01-30T23:24:04;8.67;;;5.47;;
42134;SDS011;28312;43.460;11.810;2024-01-30T23:28:08;6.47;;;3.88;;
42134;SDS011;28312;43.460;11.810;2024-01-30T23:32:12;5.07;;;2.72;;
42134;SDS011;28312;43.460;11.810;2024-01-30T23:36:27;5.10;;;2.63;;
42134;SDS011;28312;43.460;11.810;2024-01-30T23:40:32;4.88;;;2.47;;
42134;SDS011;28312;43.460;11.810;2024-01-30T23:44:35;3.95;;;2.50;;
42134;SDS011;28312;43.460;11.810;2024-01-30T23:48:39;4.43;;;2.63;;
42134;SDS011;28312;43.460;11.810;2024-01-30T23:52:45;4.75;;;2.65;;
42134;SDS011;28312;43.460;11.810;2024-01-30T23:56:51;5.22;;;3.88;;
